Charles Darwin — GDLS — position and weather

sailwx.info

Track history (hours):
 
Tides and Currents Weather Stations Pressure Air Temp Water Temp Dewpoint Dewpoint Depression Visibility Wind Speed Wind Dir Waves Ship Positions

Oceanographic research ship Charles Darwin (UK)

Detailed information on ship capabilities available from University of Delaware's Ocean Information Center.

Last reported at 2016-Aug-25 13:30 UTC. Time now 2016-Aug-25 23:43 UTC.
Position N 40°58' W 071°02'.

Length 70 m; draft 5.7 m.

Type: Cargo ship. MMSI: 235011460.

Date/timePositionNaut miles runAvg speedWind from/ knotsBaromVisibWave heightAir tempDewpointWater temp
2016-Aug-25 13:30N 40°58' W 071°02'16 1.7
2016-Aug-25 04:11N 40°60' W 070°40'  
2016-Aug-21 10:31N 40°59' W 070°59'1 1.5
2016-Aug-21 09:33N 41°00' W 071°01'2 2.1
2016-Aug-21 08:32N 40°60' W 070°58'4 3.6
2016-Aug-21 07:30N 41°03' W 070°56'3 3.1
2016-Aug-21 06:34N 41°01' W 070°59'1 0.2
2016-Aug-21 03:33N 41°00' W 070°59'1 0.7
2016-Aug-21 02:27N 41°00' W 071°00'2 1.8
2016-Aug-21 01:34N 40°59' W 071°02'2 0.1
2016-Aug-20 05:26N 40°60' W 070°59'1 0.7
2016-Aug-20 04:33N 40°59' W 070°59'  
Track history (hours):
 
Tides and Currents Weather Stations Pressure Air Temp Water Temp Dewpoint Dewpoint Depression Visibility Wind Speed Wind Dir Waves Ship Positions

Oceanographic research ship Charles Darwin (UK)

Detailed information on ship capabilities available from University of Delaware's Ocean Information Center.

Last reported at 2016-Aug-25 13:30 UTC. Time now 2016-Aug-25 23:43 UTC.
Position N 40°58' W 071°02'.

Length 70 m; draft 5.7 m.

Type: Cargo ship. MMSI: 235011460.

Date/timePositionNaut miles runAvg speedWind from/ knotsBaromVisibWave heightAir tempDewpointWater temp
2016-Aug-25 13:30N 40°58' W 071°02'16 1.7
2016-Aug-25 04:11N 40°60' W 070°40'  
2016-Aug-21 10:31N 40°59' W 070°59'1 1.5
2016-Aug-21 09:33N 41°00' W 071°01'2 2.1
2016-Aug-21 08:32N 40°60' W 070°58'4 3.6
2016-Aug-21 07:30N 41°03' W 070°56'3 3.1
2016-Aug-21 06:34N 41°01' W 070°59'1 0.2
2016-Aug-21 03:33N 41°00' W 070°59'1 0.7
2016-Aug-21 02:27N 41°00' W 071°00'2 1.8
2016-Aug-21 01:34N 40°59' W 071°02'2 0.1
2016-Aug-20 05:26N 40°60' W 070°59'1 0.7
2016-Aug-20 04:33N 40°59' W 070°59'  

Dump ship's entire track history